createdAt,value
2019-03-06T00:00:00.653Z,0.00
2019-03-06T00:01:00.621Z,0.00
2019-03-06T00:02:00.614Z,0.00
2019-03-06T00:03:00.599Z,0.00
2019-03-06T00:04:00.610Z,0.00
2019-03-06T00:05:00.601Z,0.00
2019-03-06T00:06:00.563Z,0.00
2019-03-06T00:07:00.554Z,0.00
2019-03-06T00:08:00.541Z,0.00
2019-03-06T00:09:00.530Z,0.00
2019-03-06T00:10:00.620Z,0.00
2019-03-06T00:11:00.507Z,0.00
2019-03-06T00:12:00.495Z,0.00
2019-03-06T00:13:00.487Z,0.00
2019-03-06T00:14:00.476Z,0.00
2019-03-06T00:15:00.486Z,0.00
2019-03-06T00:16:00.464Z,0.00
2019-03-06T00:17:00.442Z,0.00
2019-03-06T00:18:00.475Z,0.00
2019-03-06T00:19:00.424Z,0.00
2019-03-06T00:20:00.432Z,0.00
2019-03-06T00:21:00.402Z,0.00
2019-03-06T00:22:00.397Z,0.00
2019-03-06T00:23:02.059Z,0.00
2019-03-06T00:24:00.364Z,0.00
2019-03-06T00:25:00.376Z,0.00
2019-03-06T00:26:00.347Z,0.00
2019-03-06T00:27:00.329Z,0.00
2019-03-06T00:28:00.355Z,0.00
2019-03-06T00:29:00.307Z,0.00
2019-03-06T00:30:00.372Z,0.00
2019-03-06T00:31:00.308Z,0.00
2019-03-06T00:32:00.274Z,0.00
2019-03-06T00:33:00.266Z,0.00
2019-03-06T00:34:00.267Z,0.00
2019-03-06T00:35:00.265Z,0.00
2019-03-06T00:36:00.230Z,0.00
2019-03-06T00:37:00.218Z,0.00
2019-03-06T00:38:00.208Z,0.00
2019-03-06T00:39:00.196Z,0.00
2019-03-06T00:40:00.368Z,0.00
2019-03-06T00:41:00.183Z,0.00
2019-03-06T00:42:00.164Z,0.00
2019-03-06T00:43:00.151Z,0.00
2019-03-06T00:44:00.147Z,0.00
2019-03-06T00:45:00.326Z,0.00
2019-03-06T00:46:00.132Z,0.00
2019-03-06T00:47:00.108Z,0.00
2019-03-06T00:48:00.094Z,0.00
2019-03-06T00:49:00.084Z,0.00
2019-03-06T00:50:00.177Z,0.00
2019-03-06T00:51:00.088Z,0.00
2019-03-06T00:52:00.078Z,0.00
2019-03-06T00:53:00.039Z,0.00
2019-03-06T00:54:00.029Z,0.00
2019-03-06T00:55:00.018Z,0.00
2019-03-06T00:56:00.030Z,0.00
2019-03-06T00:56:59.995Z,0.00
2019-03-06T00:58:00.024Z,0.00
2019-03-06T00:58:59.974Z,0.00
2019-03-06T00:59:59.960Z,0.00
2019-03-06T01:00:59.976Z,0.00
2019-03-06T01:01:59.939Z,0.00
2019-03-06T01:02:59.929Z,0.00
2019-03-06T01:03:59.935Z,0.00
2019-03-06T01:04:59.910Z,0.00
2019-03-06T01:05:59.919Z,0.00
2019-03-06T01:06:59.881Z,0.00
2019-03-06T01:07:59.871Z,0.00
2019-03-06T01:08:59.866Z,0.00
2019-03-06T01:09:59.875Z,0.00
2019-03-06T01:10:59.866Z,0.00
2019-03-06T01:11:59.827Z,0.00
2019-03-06T01:12:59.817Z,0.00
2019-03-06T01:13:59.802Z,0.00
2019-03-06T01:14:59.791Z,0.00
2019-03-06T01:15:59.836Z,0.00
2019-03-06T01:16:59.769Z,0.00
2019-03-06T01:17:59.758Z,0.00
2019-03-06T01:18:59.746Z,0.00
2019-03-06T01:19:59.737Z,0.00
2019-03-06T01:20:59.752Z,0.00
2019-03-06T01:21:59.736Z,0.00
2019-03-06T01:22:59.703Z,0.00
2019-03-06T01:23:59.691Z,0.00
2019-03-06T01:24:59.679Z,0.00
2019-03-06T01:25:59.693Z,0.00
2019-03-06T01:26:59.659Z,0.00
2019-03-06T01:27:59.665Z,0.00
2019-03-06T01:28:59.636Z,0.00
2019-03-06T01:29:59.627Z,0.00
2019-03-06T01:30:59.650Z,0.00
2019-03-06T01:31:59.624Z,0.00
2019-03-06T01:32:59.594Z,0.00
2019-03-06T01:33:59.603Z,0.00
2019-03-06T01:34:59.573Z,0.00
2019-03-06T01:35:59.582Z,0.00
2019-03-06T01:36:59.544Z,0.00
2019-03-06T01:37:59.534Z,0.00
2019-03-06T01:38:59.523Z,0.00
2019-03-06T01:39:59.536Z,0.00
2019-03-06T01:40:59.529Z,0.00
2019-03-06T01:41:59.512Z,0.00
2019-03-06T01:42:59.476Z,0.00
2019-03-06T01:43:59.468Z,0.00
2019-03-06T01:44:59.458Z,0.00
2019-03-06T01:45:59.465Z,0.00
2019-03-06T01:46:59.457Z,0.00
2019-03-06T01:47:59.422Z,0.00
2019-03-06T01:48:59.413Z,0.00
2019-03-06T01:49:59.398Z,0.00
2019-03-06T01:50:59.387Z,0.00
2019-03-06T01:51:59.411Z,0.00
2019-03-06T01:52:59.370Z,0.00
2019-03-06T01:53:59.353Z,0.00
2019-03-06T01:54:59.342Z,0.00
2019-03-06T01:55:59.330Z,0.00
2019-03-06T01:56:59.343Z,0.00
2019-03-06T01:57:59.360Z,0.00
2019-03-06T01:58:59.296Z,0.00
2019-03-06T01:59:59.285Z,0.00
2019-03-06T02:00:59.274Z,0.00
2019-03-06T02:01:59.285Z,0.00
2019-03-06T02:02:59.250Z,0.00
2019-03-06T02:03:59.252Z,0.00
2019-03-06T02:04:59.231Z,0.00
2019-03-06T02:05:59.220Z,0.00
2019-03-06T02:06:59.228Z,0.00
2019-03-06T02:07:59.198Z,0.00
2019-03-06T02:08:59.185Z,0.00
2019-03-06T02:09:59.184Z,0.00
2019-03-06T02:10:59.162Z,0.00
2019-03-06T02:11:59.176Z,0.00
2019-03-06T02:12:59.165Z,0.00
2019-03-06T02:13:59.145Z,0.00
2019-03-06T02:14:59.123Z,0.00
2019-03-06T02:15:59.144Z,0.00
2019-03-06T02:16:59.118Z,0.00
2019-03-06T02:17:59.083Z,0.00
2019-03-06T02:18:59.077Z,0.00
2019-03-06T02:19:59.062Z,0.00
2019-03-06T02:20:59.051Z,0.00
2019-03-06T02:21:59.084Z,0.00
2019-03-06T02:22:59.029Z,0.00
2019-03-06T02:23:59.017Z,0.00
2019-03-06T02:24:59.008Z,0.00
2019-03-06T02:25:58.994Z,0.00
2019-03-06T02:26:59.009Z,0.00
2019-03-06T02:27:58.985Z,0.00
2019-03-06T02:28:58.965Z,0.00
2019-03-06T02:29:58.951Z,0.00
2019-03-06T02:30:58.938Z,0.00
2019-03-06T02:31:58.954Z,0.00
2019-03-06T02:32:58.941Z,0.00
2019-03-06T02:33:58.926Z,0.00
2019-03-06T02:34:58.899Z,0.00
2019-03-06T02:35:58.888Z,0.00
2019-03-06T02:36:58.883Z,0.00
2019-03-06T02:37:58.891Z,0.00
2019-03-06T02:38:58.852Z,0.00
2019-03-06T02:39:58.839Z,0.00
2019-03-06T02:40:58.840Z,0.00
2019-03-06T02:41:58.819Z,0.00
2019-03-06T02:42:58.848Z,0.00
2019-03-06T02:43:58.794Z,0.00
2019-03-06T02:44:58.782Z,0.00
2019-03-06T02:45:58.773Z,0.00
2019-03-06T02:46:58.780Z,0.00
2019-03-06T02:47:58.776Z,0.00
2019-03-06T02:48:58.737Z,0.00
2019-03-06T02:49:58.727Z,0.00
2019-03-06T02:50:58.728Z,0.00
2019-03-06T02:51:58.708Z,0.00
2019-03-06T02:52:58.736Z,0.00
2019-03-06T02:53:58.688Z,0.00
2019-03-06T02:54:58.671Z,0.00
2019-03-06T02:55:58.663Z,0.00
2019-03-06T02:56:58.661Z,0.00
2019-03-06T02:57:58.686Z,0.00
2019-03-06T02:58:58.634Z,0.00
2019-03-06T02:59:58.616Z,0.00
2019-03-06T03:00:58.611Z,0.00
2019-03-06T03:01:58.594Z,0.00
2019-03-06T03:02:58.606Z,0.00
2019-03-06T03:03:58.600Z,0.00
2019-03-06T03:04:58.563Z,0.00
2019-03-06T03:05:58.548Z,0.00
2019-03-06T03:06:58.547Z,0.00
2019-03-06T03:07:58.550Z,0.00
2019-03-06T03:08:58.521Z,0.00
2019-03-06T03:09:58.517Z,0.00
2019-03-06T03:10:58.494Z,0.00
2019-03-06T03:11:58.494Z,0.00
2019-03-06T03:12:58.494Z,0.00
2019-03-06T03:13:58.458Z,0.00
2019-03-06T03:14:58.454Z,0.00
2019-03-06T03:15:58.449Z,0.00
2019-03-06T03:16:58.431Z,0.00
2019-03-06T03:17:58.440Z,0.00
2019-03-06T03:18:58.405Z,0.00
2019-03-06T03:19:58.395Z,0.00
2019-03-06T03:20:58.394Z,0.00
2019-03-06T03:21:58.386Z,0.00
2019-03-06T03:22:58.385Z,0.00
2019-03-06T03:23:58.373Z,0.00
2019-03-06T03:24:58.335Z,0.00
2019-03-06T03:25:58.325Z,0.00
2019-03-06T03:26:58.317Z,0.00
2019-03-06T03:27:58.313Z,0.00
2019-03-06T03:28:58.316Z,0.00
2019-03-06T03:29:58.285Z,0.00
2019-03-06T03:30:58.270Z,0.00
2019-03-06T03:31:58.258Z,0.00
2019-03-06T03:32:58.248Z,0.00
2019-03-06T03:33:58.291Z,0.00
2019-03-06T03:34:58.245Z,0.00
2019-03-06T03:35:58.213Z,0.00
2019-03-06T03:36:58.201Z,0.00
2019-03-06T03:37:58.193Z,0.00
2019-03-06T03:38:58.204Z,0.00
2019-03-06T03:39:58.185Z,0.00
2019-03-06T03:40:58.164Z,0.00
2019-03-06T03:41:58.143Z,0.00
2019-03-06T03:42:58.137Z,0.00
2019-03-06T03:43:58.154Z,0.00
2019-03-06T03:44:58.112Z,0.00
2019-03-06T03:45:58.110Z,0.00
2019-03-06T03:46:58.090Z,0.00
2019-03-06T03:47:58.076Z,0.00
2019-03-06T03:48:58.088Z,0.00
2019-03-06T03:49:58.057Z,0.00
2019-03-06T03:50:58.042Z,0.00
2019-03-06T03:51:58.041Z,0.00
2019-03-06T03:52:58.095Z,0.00
2019-03-06T03:53:58.033Z,0.00
2019-03-06T03:54:58.004Z,0.00
2019-03-06T03:55:57.986Z,0.00
2019-03-06T03:56:57.976Z,0.00
2019-03-06T03:57:57.979Z,0.00
2019-03-06T03:58:57.976Z,0.00
2019-03-06T03:59:57.941Z,0.00
2019-03-06T04:00:57.941Z,0.00
2019-03-06T04:01:57.922Z,0.00
2019-03-06T04:02:57.923Z,0.00
2019-03-06T04:03:57.937Z,0.00
2019-03-06T04:04:57.888Z,0.00
2019-03-06T04:05:57.874Z,0.00
2019-03-06T04:06:57.863Z,0.00
2019-03-06T04:07:57.850Z,0.00
2019-03-06T04:08:57.866Z,0.00
2019-03-06T04:09:57.847Z,0.00
2019-03-06T04:10:57.823Z,0.00
2019-03-06T04:11:57.818Z,0.00
2019-03-06T04:12:57.800Z,0.00
2019-03-06T04:13:57.811Z,0.00
2019-03-06T04:14:57.781Z,0.00
2019-03-06T04:15:57.796Z,0.00
2019-03-06T04:16:57.760Z,0.00
2019-03-06T04:17:57.739Z,0.00
2019-03-06T04:18:57.732Z,0.00
2019-03-06T04:19:57.743Z,0.00
2019-03-06T04:20:57.706Z,0.00
2019-03-06T04:21:57.713Z,0.00
2019-03-06T04:22:57.685Z,0.00
2019-03-06T04:23:57.673Z,0.00
2019-03-06T04:24:57.684Z,0.00
2019-03-06T04:25:57.657Z,0.00
2019-03-06T04:26:57.637Z,0.00
2019-03-06T04:27:57.648Z,0.00
2019-03-06T04:28:57.621Z,0.00
2019-03-06T04:29:57.627Z,0.00
2019-03-06T04:30:57.596Z,0.00
2019-03-06T04:31:57.585Z,0.00
2019-03-06T04:32:57.574Z,0.00
2019-03-06T04:33:57.566Z,0.00
2019-03-06T04:34:57.570Z,0.00
2019-03-06T04:35:57.535Z,0.00
2019-03-06T04:36:57.528Z,0.00
2019-03-06T04:37:57.513Z,0.00
2019-03-06T04:38:57.513Z,0.00
2019-03-06T04:39:57.513Z,0.00
2019-03-06T04:40:57.485Z,0.00
2019-03-06T04:41:57.467Z,0.00
2019-03-06T04:42:57.460Z,0.00
2019-03-06T04:43:57.446Z,0.00
2019-03-06T04:44:57.467Z,0.00
2019-03-06T04:45:57.428Z,0.00
2019-03-06T04:46:57.413Z,0.00
2019-03-06T04:47:57.397Z,0.00
2019-03-06T04:48:57.388Z,0.00
2019-03-06T04:49:57.403Z,0.00
2019-03-06T04:50:57.377Z,0.00
2019-03-06T04:51:57.354Z,0.00
2019-03-06T04:52:57.343Z,0.00
2019-03-06T04:53:57.331Z,0.00
2019-03-06T04:54:57.343Z,0.00
2019-03-06T04:55:57.310Z,0.00
2019-03-06T04:56:57.307Z,0.00
2019-03-06T04:57:57.287Z,0.00
2019-03-06T04:58:57.276Z,0.00
2019-03-06T04:59:57.291Z,0.00
2019-03-06T05:00:57.278Z,0.00
2019-03-06T05:01:57.242Z,0.00
2019-03-06T05:02:57.257Z,0.00
2019-03-06T05:03:57.219Z,0.00
2019-03-06T05:04:57.207Z,0.00
2019-03-06T05:05:57.222Z,0.00
2019-03-06T05:06:57.185Z,0.00
2019-03-06T05:07:57.178Z,0.00
2019-03-06T05:08:57.182Z,0.00
2019-03-06T05:09:57.151Z,0.00
2019-03-06T05:10:57.165Z,0.00
2019-03-06T05:11:57.153Z,0.00
2019-03-06T05:12:57.118Z,0.00
2019-03-06T05:13:57.109Z,0.00
2019-03-06T05:14:57.102Z,0.00
2019-03-06T05:15:57.107Z,0.00
2019-03-06T05:16:57.072Z,0.00
2019-03-06T05:17:57.061Z,0.00
2019-03-06T05:18:57.049Z,0.00
2019-03-06T05:19:57.043Z,0.00
2019-03-06T05:20:57.091Z,0.00
2019-03-06T05:21:57.015Z,0.00
2019-03-06T05:22:57.005Z,0.00
2019-03-06T05:23:56.994Z,0.00
2019-03-06T05:24:56.988Z,0.00
2019-03-06T05:25:56.991Z,0.00
2019-03-06T05:26:56.967Z,0.00
2019-03-06T05:27:56.948Z,0.00
2019-03-06T05:28:56.940Z,0.00
2019-03-06T05:29:56.925Z,0.00
2019-03-06T05:30:56.938Z,0.00
2019-03-06T05:31:56.905Z,0.00
2019-03-06T05:32:56.958Z,0.00
2019-03-06T05:33:56.883Z,0.00
2019-03-06T05:34:56.868Z,0.00
2019-03-06T05:35:56.884Z,0.00
2019-03-06T05:36:56.858Z,0.00
2019-03-06T05:37:56.835Z,0.00
2019-03-06T05:38:56.839Z,0.00
2019-03-06T05:39:56.813Z,0.00
2019-03-06T05:40:56.834Z,0.00
2019-03-06T05:41:56.790Z,0.00
2019-03-06T05:42:56.778Z,0.00
2019-03-06T05:43:56.767Z,0.00
2019-03-06T05:44:56.769Z,0.00
2019-03-06T05:45:56.748Z,0.00
2019-03-06T05:46:56.758Z,0.00
2019-03-06T05:47:56.722Z,0.00
2019-03-06T05:48:56.712Z,0.00
2019-03-06T05:49:56.702Z,0.00
2019-03-06T05:50:56.708Z,0.00
2019-03-06T05:51:56.702Z,0.00
2019-03-06T05:52:56.675Z,0.00
2019-03-06T05:53:56.654Z,0.00
2019-03-06T05:54:56.643Z,0.00
2019-03-06T05:55:56.634Z,0.00
2019-03-06T05:56:56.649Z,0.00
2019-03-06T05:57:56.614Z,0.00
2019-03-06T05:58:56.601Z,0.00
2019-03-06T05:59:56.588Z,0.00
2019-03-06T06:00:56.581Z,0.00
2019-03-06T06:01:56.635Z,0.00
2019-03-06T06:02:56.591Z,0.00
2019-03-06T06:03:56.545Z,0.00
2019-03-06T06:04:56.528Z,0.00
2019-03-06T06:05:56.517Z,0.00
2019-03-06T06:06:56.530Z,0.00
2019-03-06T06:07:56.509Z,0.00
2019-03-06T06:08:56.500Z,0.00
2019-03-06T06:09:56.473Z,5.62
2019-03-06T06:10:56.462Z,5.62
2019-03-06T06:11:56.475Z,5.62
2019-03-06T06:12:56.444Z,5.62
2019-03-06T06:13:56.427Z,5.62
2019-03-06T06:14:56.544Z,11.25
2019-03-06T06:15:56.406Z,11.25
2019-03-06T06:16:56.419Z,11.25
2019-03-06T06:17:56.388Z,16.88
2019-03-06T06:18:56.374Z,16.88
2019-03-06T06:19:56.359Z,16.88
2019-03-06T06:20:56.462Z,16.88
2019-03-06T06:21:56.360Z,22.50
2019-03-06T06:22:57.290Z,22.50
2019-03-06T06:23:56.454Z,22.50
2019-03-06T06:24:56.302Z,28.12
2019-03-06T06:25:56.291Z,28.12
2019-03-06T06:26:56.302Z,28.12
2019-03-06T06:27:56.269Z,33.75
2019-03-06T06:28:56.311Z,33.75
2019-03-06T06:29:56.247Z,39.38
2019-03-06T06:30:56.234Z,39.38
2019-03-06T06:31:56.255Z,45.00
2019-03-06T06:32:56.212Z,45.00
2019-03-06T06:33:56.202Z,45.00
2019-03-06T06:34:56.195Z,50.62
2019-03-06T06:35:56.182Z,50.62
2019-03-06T06:36:56.194Z,56.25
2019-03-06T06:37:56.211Z,56.25
2019-03-06T06:38:56.146Z,56.25
2019-03-06T06:39:56.173Z,61.88
2019-03-06T06:40:56.131Z,61.88
2019-03-06T06:41:56.327Z,61.88
2019-03-06T06:42:56.149Z,61.88
2019-03-06T06:43:57.512Z,61.88
2019-03-06T06:44:56.768Z,67.50
2019-03-06T06:45:56.068Z,67.50
2019-03-06T06:46:56.084Z,67.50
2019-03-06T06:47:56.128Z,67.50
2019-03-06T06:49:04.645Z,67.50
2019-03-06T06:49:56.026Z,67.50
2019-03-06T06:51:01.753Z,73.12
2019-03-06T06:51:57.001Z,73.12
2019-03-06T06:52:56.009Z,78.75
2019-03-06T06:53:56.000Z,78.75
2019-03-06T06:54:55.996Z,84.38
2019-03-06T06:55:55.960Z,84.38
2019-03-06T06:56:55.957Z,84.38
2019-03-06T06:57:55.972Z,84.38
2019-03-06T06:58:55.928Z,90.00
2019-03-06T06:59:55.919Z,90.00
2019-03-06T07:00:55.901Z,90.00
2019-03-06T07:01:57.147Z,90.00
2019-03-06T07:02:55.909Z,90.00
2019-03-06T07:03:55.875Z,95.62
2019-03-06T07:04:55.860Z,95.62
2019-03-06T07:05:55.846Z,95.62
2019-03-06T07:06:55.870Z,95.62
2019-03-06T07:07:55.839Z,95.62
2019-03-06T07:08:55.892Z,95.62
2019-03-06T07:09:55.800Z,95.62
2019-03-06T07:10:55.783Z,90.00
2019-03-06T07:11:55.834Z,90.00
2019-03-06T07:12:55.787Z,90.00
2019-03-06T07:13:55.759Z,95.62
2019-03-06T07:14:55.738Z,95.62
2019-03-06T07:15:55.768Z,95.62
2019-03-06T07:16:57.523Z,95.62
2019-03-06T07:17:55.735Z,95.62
2019-03-06T07:18:55.699Z,95.62
2019-03-06T07:19:55.687Z,101.25
2019-03-06T07:20:55.743Z,101.25
2019-03-06T07:21:55.663Z,106.88
2019-03-06T07:22:55.685Z,112.50
2019-03-06T07:23:55.647Z,118.12
2019-03-06T07:24:55.630Z,123.75
2019-03-06T07:25:55.623Z,129.38
2019-03-06T07:26:55.615Z,135.00
2019-03-06T07:27:55.624Z,140.62
2019-03-06T07:28:55.584Z,140.62
2019-03-06T07:29:55.577Z,140.62
2019-03-06T07:30:55.568Z,135.00
2019-03-06T07:31:55.560Z,129.38
2019-03-06T07:32:55.569Z,129.38
2019-03-06T07:33:55.553Z,129.38
2019-03-06T07:34:55.522Z,129.38
2019-03-06T07:35:55.510Z,129.38
2019-03-06T07:36:55.494Z,129.38
2019-03-06T07:37:55.493Z,135.00
2019-03-06T07:38:55.498Z,135.00
2019-03-06T07:39:55.463Z,140.62
2019-03-06T07:40:55.453Z,135.00
2019-03-06T07:41:55.446Z,135.00
2019-03-06T07:42:55.428Z,135.00
2019-03-06T07:43:55.450Z,135.00
2019-03-06T07:44:55.425Z,140.62
2019-03-06T07:45:55.390Z,146.25
2019-03-06T07:46:55.381Z,146.25
2019-03-06T07:47:55.369Z,151.88
2019-03-06T07:48:55.379Z,157.50
2019-03-06T07:49:55.363Z,163.12
2019-03-06T07:50:55.339Z,163.12
2019-03-06T07:51:55.331Z,163.12
2019-03-06T07:52:55.341Z,163.12
2019-03-06T07:53:55.338Z,163.12
2019-03-06T07:54:55.317Z,157.50
2019-03-06T07:55:55.288Z,151.88
2019-03-06T07:56:55.275Z,151.88
2019-03-06T07:57:55.283Z,146.25
2019-03-06T07:58:55.275Z,151.88
2019-03-06T07:59:55.243Z,146.25
2019-03-06T08:00:55.238Z,146.25
2019-03-06T08:01:55.224Z,146.25
2019-03-06T08:02:55.207Z,146.25
2019-03-06T08:03:55.250Z,151.88
2019-03-06T08:04:55.182Z,151.88
2019-03-06T08:05:55.196Z,151.88
2019-03-06T08:06:55.168Z,151.88
2019-03-06T08:07:55.150Z,151.88
2019-03-06T08:08:55.145Z,146.25
2019-03-06T08:09:55.234Z,140.62
2019-03-06T08:10:55.119Z,140.62
2019-03-06T08:11:55.118Z,146.25
2019-03-06T08:12:55.098Z,151.88
2019-03-06T08:13:55.093Z,163.12
2019-03-06T08:14:55.097Z,174.38
2019-03-06T08:15:55.081Z,185.62
2019-03-06T08:16:55.062Z,196.88
2019-03-06T08:17:55.049Z,208.12
2019-03-06T08:18:56.016Z,213.75
2019-03-06T08:19:55.052Z,219.38
2019-03-06T08:20:55.006Z,225.00
2019-03-06T08:21:54.999Z,230.62
2019-03-06T08:22:55.000Z,236.25
2019-03-06T08:23:54.975Z,247.50
2019-03-06T08:24:55.003Z,253.12
2019-03-06T08:25:54.964Z,258.75
2019-03-06T08:26:54.959Z,264.38
2019-03-06T08:27:54.930Z,264.38
2019-03-06T08:28:54.922Z,264.38
2019-03-06T08:29:54.910Z,270.00
2019-03-06T08:30:54.947Z,275.62
2019-03-06T08:31:54.888Z,275.62
2019-03-06T08:32:54.877Z,275.62
2019-03-06T08:33:54.889Z,275.62
2019-03-06T08:34:54.854Z,275.62
2019-03-06T08:35:54.865Z,275.62
2019-03-06T08:36:54.832Z,270.00
2019-03-06T08:37:54.819Z,270.00
2019-03-06T08:38:54.840Z,275.62
2019-03-06T08:39:54.802Z,281.25
2019-03-06T08:41:03.570Z,286.88
2019-03-06T08:41:55.791Z,292.50
2019-03-06T08:42:54.761Z,286.88
2019-03-06T08:43:54.761Z,286.88
2019-03-06T08:44:54.738Z,286.88
2019-03-06T08:45:54.752Z,286.88
2019-03-06T08:46:54.724Z,292.50
2019-03-06T08:47:54.712Z,298.12
2019-03-06T08:48:54.698Z,298.12
2019-03-06T08:49:55.301Z,298.12
2019-03-06T08:50:54.716Z,303.75
2019-03-06T08:51:54.662Z,309.38
2019-03-06T08:52:54.650Z,309.38
2019-03-06T08:53:54.701Z,303.75
2019-03-06T08:54:54.627Z,303.75
2019-03-06T08:55:54.638Z,303.75
2019-03-06T08:56:54.603Z,303.75
2019-03-06T08:57:54.602Z,303.75
2019-03-06T08:58:57.124Z,303.75
2019-03-06T08:59:57.109Z,309.38
2019-03-06T09:00:54.655Z,309.38
2019-03-06T09:02:00.476Z,315.00
2019-03-06T09:02:55.546Z,320.62
2019-03-06T09:03:54.530Z,326.25
2019-03-06T09:05:09.655Z,331.88
2019-03-06T09:05:54.629Z,331.88
2019-03-06T09:08:21.626Z,337.50
2019-03-06T09:09:10.480Z,337.50
2019-03-06T09:10:13.444Z,343.12
2019-03-06T09:11:10.473Z,348.75
2019-03-06T09:12:10.446Z,354.38
2019-03-06T09:13:10.435Z,360.00
2019-03-06T09:14:10.415Z,365.62
2019-03-06T09:15:10.412Z,365.62
2019-03-06T09:16:10.418Z,360.00
2019-03-06T09:17:10.415Z,365.62
2019-03-06T09:18:10.366Z,365.62
2019-03-06T09:19:10.353Z,365.62
2019-03-06T09:20:10.341Z,354.38
2019-03-06T09:21:10.538Z,337.50
2019-03-06T09:22:10.347Z,326.25
2019-03-06T09:23:10.309Z,320.62
2019-03-06T09:24:10.325Z,326.25
2019-03-06T09:25:10.287Z,326.25
2019-03-06T09:26:10.355Z,320.62
2019-03-06T09:27:10.286Z,326.25
2019-03-06T09:28:10.255Z,337.50
2019-03-06T09:29:10.243Z,354.38
2019-03-06T09:30:16.065Z,360.00
2019-03-06T09:31:11.247Z,371.25
2019-03-06T09:32:10.217Z,371.25
2019-03-06T09:33:10.209Z,371.25
2019-03-06T09:34:10.202Z,365.62
2019-03-06T09:35:10.200Z,360.00
2019-03-06T09:36:10.167Z,348.75
2019-03-06T09:37:10.211Z,343.12
2019-03-06T09:38:11.222Z,343.12
2019-03-06T09:39:10.135Z,343.12
2019-03-06T09:40:10.130Z,331.88
2019-03-06T09:41:10.129Z,320.62
2019-03-06T09:42:10.119Z,298.12
2019-03-06T09:43:10.088Z,292.50
2019-03-06T09:44:10.079Z,292.50
2019-03-06T09:45:10.066Z,298.12
2019-03-06T09:46:10.095Z,298.12
2019-03-06T09:47:10.111Z,292.50
2019-03-06T09:48:10.034Z,286.88
2019-03-06T09:49:11.791Z,286.88
2019-03-06T09:50:10.007Z,303.75
2019-03-06T09:51:09.996Z,315.00
2019-03-06T09:52:10.039Z,320.62
2019-03-06T09:53:09.975Z,320.62
2019-03-06T09:54:09.970Z,320.62
2019-03-06T09:55:09.955Z,309.38
2019-03-06T09:56:09.955Z,298.12
2019-03-06T09:57:09.973Z,286.88
2019-03-06T09:58:09.931Z,281.25
2019-03-06T09:59:09.969Z,281.25
2019-03-06T10:00:09.923Z,286.88
2019-03-06T10:01:10.455Z,292.50
2019-03-06T10:02:09.896Z,303.75
2019-03-06T10:03:09.864Z,309.38
2019-03-06T10:04:09.853Z,303.75
2019-03-06T10:05:09.845Z,309.38
2019-03-06T10:06:09.885Z,309.38
2019-03-06T10:07:09.819Z,309.38
2019-03-06T10:08:09.842Z,309.38
2019-03-06T10:09:09.827Z,303.75
2019-03-06T10:10:09.783Z,303.75
2019-03-06T10:11:09.781Z,303.75
2019-03-06T10:12:09.763Z,309.38
2019-03-06T10:13:09.775Z,315.00
2019-03-06T10:14:09.742Z,315.00
2019-03-06T10:15:09.769Z,303.75
2019-03-06T10:16:09.724Z,298.12
2019-03-06T10:17:09.709Z,281.25
2019-03-06T10:18:09.725Z,264.38
2019-03-06T10:19:09.685Z,247.50
2019-03-06T10:20:09.673Z,230.62
2019-03-06T10:21:09.661Z,213.75
2019-03-06T10:22:09.689Z,202.50
2019-03-06T10:23:09.664Z,196.88
2019-03-06T10:24:09.668Z,202.50
2019-03-06T10:25:09.617Z,213.75
2019-03-06T10:26:09.612Z,219.38
2019-03-06T10:27:09.614Z,230.62
2019-03-06T10:28:09.609Z,247.50
2019-03-06T10:29:09.600Z,258.75
2019-03-06T10:30:09.734Z,264.38
2019-03-06T10:31:09.558Z,264.38
2019-03-06T10:32:09.564Z,270.00
2019-03-06T10:33:09.549Z,281.25
2019-03-06T10:34:09.540Z,281.25
2019-03-06T10:35:09.549Z,286.88
2019-03-06T10:36:09.495Z,292.50
2019-03-06T10:37:09.488Z,298.12
2019-03-06T10:38:16.448Z,309.38
2019-03-06T10:39:10.480Z,315.00
2019-03-06T10:40:10.022Z,315.00
2019-03-06T10:41:12.603Z,309.38
2019-03-06T10:42:09.559Z,309.38
2019-03-06T10:43:09.413Z,303.75
2019-03-06T10:44:09.428Z,298.12
2019-03-06T10:45:09.406Z,292.50
2019-03-06T10:46:09.381Z,292.50
2019-03-06T10:47:09.382Z,286.88
2019-03-06T10:48:13.569Z,281.25
2019-03-06T10:49:09.373Z,275.62
2019-03-06T10:50:09.347Z,270.00
2019-03-06T10:51:09.322Z,253.12
2019-03-06T10:52:09.315Z,241.88
2019-03-06T10:53:09.314Z,225.00
2019-03-06T10:54:09.317Z,213.75
2019-03-06T10:55:09.276Z,208.12
2019-03-06T10:56:09.264Z,208.12
2019-03-06T10:57:09.259Z,208.12
2019-03-06T10:58:09.242Z,213.75
2019-03-06T10:59:09.262Z,213.75
2019-03-06T11:00:09.450Z,213.75
2019-03-06T11:01:09.314Z,219.38
2019-03-06T11:02:09.411Z,230.62
2019-03-06T11:03:09.188Z,241.88
2019-03-06T11:04:09.197Z,253.12
2019-03-06T11:05:09.162Z,253.12
2019-03-06T11:06:09.152Z,258.75
2019-03-06T11:07:09.141Z,253.12
2019-03-06T11:08:09.136Z,247.50
2019-03-06T11:09:09.178Z,247.50
2019-03-06T11:10:09.106Z,247.50
2019-03-06T11:11:09.097Z,247.50
2019-03-06T11:12:09.096Z,241.88
2019-03-06T11:13:09.188Z,247.50
2019-03-06T11:14:09.091Z,264.38
2019-03-06T11:15:09.054Z,275.62
2019-03-06T11:16:09.040Z,281.25
2019-03-06T11:17:09.026Z,292.50
2019-03-06T11:18:09.016Z,309.38
2019-03-06T11:19:09.165Z,315.00
2019-03-06T11:20:09.028Z,326.25
2019-03-06T11:21:08.980Z,326.25
2019-03-06T11:22:08.969Z,326.25
2019-03-06T11:23:08.957Z,326.25
2019-03-06T11:24:08.946Z,331.88
2019-03-06T11:25:08.956Z,331.88
2019-03-06T11:26:08.937Z,337.50
2019-03-06T11:27:08.913Z,337.50
2019-03-06T11:28:08.901Z,337.50
2019-03-06T11:29:08.891Z,343.12
2019-03-06T11:30:08.910Z,348.75
2019-03-06T11:31:08.866Z,354.38
2019-03-06T11:32:08.858Z,365.62
2019-03-06T11:33:08.863Z,365.62
2019-03-06T11:34:08.833Z,360.00
2019-03-06T11:35:08.843Z,354.38
2019-03-06T11:36:08.875Z,354.38
2019-03-06T11:37:08.801Z,365.62
2019-03-06T11:38:08.789Z,371.25
2019-03-06T11:39:08.795Z,382.50
2019-03-06T11:40:08.803Z,399.38
2019-03-06T11:41:08.754Z,410.62
2019-03-06T11:42:08.745Z,427.50
2019-03-06T11:43:08.753Z,421.88
2019-03-06T11:44:08.731Z,410.62
2019-03-06T11:45:08.732Z,382.50
2019-03-06T11:46:08.702Z,360.00
2019-03-06T11:47:08.687Z,348.75
2019-03-06T11:48:08.677Z,343.12
2019-03-06T11:49:08.682Z,337.50
2019-03-06T11:50:08.677Z,331.88
2019-03-06T11:51:08.649Z,326.25
2019-03-06T11:52:08.641Z,331.88
2019-03-06T11:53:08.666Z,343.12
2019-03-06T11:54:08.665Z,354.38
2019-03-06T11:55:08.631Z,360.00
2019-03-06T11:56:08.637Z,354.38
2019-03-06T11:57:08.577Z,348.75
2019-03-06T11:58:08.565Z,354.38
2019-03-06T11:59:08.593Z,354.38
2019-03-06T12:00:08.569Z,343.12
2019-03-06T12:01:08.616Z,320.62
2019-03-06T12:02:08.521Z,298.12
2019-03-06T12:03:08.510Z,286.88
2019-03-06T12:04:08.501Z,275.62
2019-03-06T12:05:08.789Z,264.38
2019-03-06T12:06:08.620Z,253.12
2019-03-06T12:07:08.467Z,241.88
2019-03-06T12:08:08.471Z,236.25
2019-03-06T12:09:08.445Z,225.00
2019-03-06T12:10:08.437Z,208.12
2019-03-06T12:11:08.962Z,191.25
2019-03-06T12:12:08.415Z,168.75
2019-03-06T12:13:08.401Z,163.12
2019-03-06T12:14:08.536Z,157.50
2019-03-06T12:15:08.417Z,151.88
2019-03-06T12:16:08.905Z,151.88
2019-03-06T12:17:08.373Z,151.88
2019-03-06T12:18:08.352Z,146.25
2019-03-06T12:19:08.338Z,140.62
2019-03-06T12:20:08.608Z,135.00
2019-03-06T12:21:08.352Z,140.62
2019-03-06T12:22:08.306Z,146.25
2019-03-06T12:23:08.291Z,151.88
2019-03-06T12:24:08.276Z,157.50
2019-03-06T12:25:08.265Z,163.12
2019-03-06T12:26:08.292Z,174.38
2019-03-06T12:27:08.247Z,180.00
2019-03-06T12:28:08.241Z,191.25
2019-03-06T12:29:08.224Z,191.25
2019-03-06T12:30:08.239Z,180.00
2019-03-06T12:31:08.224Z,168.75
2019-03-06T12:32:08.189Z,174.38
2019-03-06T12:33:08.192Z,163.12
2019-03-06T12:34:08.169Z,168.75
2019-03-06T12:35:08.154Z,180.00
2019-03-06T12:36:08.171Z,191.25
2019-03-06T12:37:08.133Z,185.62
2019-03-06T12:38:08.121Z,185.62
2019-03-06T12:39:08.116Z,191.25
2019-03-06T12:40:12.317Z,191.25
2019-03-06T12:41:09.111Z,180.00
2019-03-06T12:42:14.228Z,168.75
2019-03-06T12:43:09.065Z,163.12
2019-03-06T12:44:10.657Z,157.50
2019-03-06T12:45:08.113Z,151.88
2019-03-06T12:46:08.057Z,146.25
2019-03-06T12:47:08.022Z,140.62
2019-03-06T12:48:08.010Z,135.00
2019-03-06T12:49:08.006Z,123.75
2019-03-06T12:50:07.994Z,118.12
2019-03-06T12:51:08.010Z,112.50
2019-03-06T12:52:07.966Z,95.62
2019-03-06T12:53:07.980Z,90.00
2019-03-06T12:54:07.978Z,90.00
2019-03-06T12:55:07.933Z,90.00